sensor_id;sensor_type;location;lat;lon;timestamp;temperature;humidity
40822;DHT22;26542;50.836;5.356;2022-08-19T00:00:43;20.00;98.50
40822;DHT22;26542;50.836;5.356;2022-08-19T00:03:09;19.90;98.70
40822;DHT22;26542;50.836;5.356;2022-08-19T00:05:35;19.90;98.70
40822;DHT22;26542;50.836;5.356;2022-08-19T00:08:02;19.90;98.60
40822;DHT22;26542;50.836;5.356;2022-08-19T00:10:28;19.90;98.50
40822;DHT22;26542;50.836;5.356;2022-08-19T00:12:54;19.80;98.70
40822;DHT22;26542;50.836;5.356;2022-08-19T00:15:21;19.80;98.70
40822;DHT22;26542;50.836;5.356;2022-08-19T00:17:48;19.70;98.90
40822;DHT22;26542;50.836;5.356;2022-08-19T00:20:18;19.70;99.20
40822;DHT22;26542;50.836;5.356;2022-08-19T00:22:45;19.70;99.20
40822;DHT22;26542;50.836;5.356;2022-08-19T00:25:12;19.70;99.20
40822;DHT22;26542;50.836;5.356;2022-08-19T00:27:39;19.60;99.50
40822;DHT22;26542;50.836;5.356;2022-08-19T00:30:08;19.60;99.10
40822;DHT22;26542;50.836;5.356;2022-08-19T00:32:35;19.60;99.00
40822;DHT22;26542;50.836;5.356;2022-08-19T00:35:03;19.60;98.90
40822;DHT22;26542;50.836;5.356;2022-08-19T00:37:31;19.60;99.10
40822;DHT22;26542;50.836;5.356;2022-08-19T00:39:58;19.50;99.30
40822;DHT22;26542;50.836;5.356;2022-08-19T00:42:24;19.50;99.40
40822;DHT22;26542;50.836;5.356;2022-08-19T00:44:53;19.50;99.50
40822;DHT22;26542;50.836;5.356;2022-08-19T00:47:21;19.40;99.50
40822;DHT22;26542;50.836;5.356;2022-08-19T00:49:52;19.50;99.50
40822;DHT22;26542;50.836;5.356;2022-08-19T00:52:32;19.40;99.50
40822;DHT22;26542;50.836;5.356;2022-08-19T00:55:00;19.40;99.60
40822;DHT22;26542;50.836;5.356;2022-08-19T00:57:38;19.40;99.70
40822;DHT22;26542;50.836;5.356;2022-08-19T01:00:10;19.30;99.90
40822;DHT22;26542;50.836;5.356;2022-08-19T01:02:37;19.20;99.80
40822;DHT22;26542;50.836;5.356;2022-08-19T01:05:11;19.30;99.70
40822;DHT22;26542;50.836;5.356;2022-08-19T01:07:39;19.30;99.60
40822;DHT22;26542;50.836;5.356;2022-08-19T01:10:10;19.20;99.60
40822;DHT22;26542;50.836;5.356;2022-08-19T01:12:38;19.20;99.60
40822;DHT22;26542;50.836;5.356;2022-08-19T01:15:09;19.20;99.50
40822;DHT22;26542;50.836;5.356;2022-08-19T01:17:38;19.20;99.40
40822;DHT22;26542;50.836;5.356;2022-08-19T01:20:11;19.20;99.60
40822;DHT22;26542;50.836;5.356;2022-08-19T01:22:44;19.10;99.70
40822;DHT22;26542;50.836;5.356;2022-08-19T01:25:14;19.00;99.80
40822;DHT22;26542;50.836;5.356;2022-08-19T01:27:47;19.10;99.50
40822;DHT22;26542;50.836;5.356;2022-08-19T01:30:20;19.10;99.60
40822;DHT22;26542;50.836;5.356;2022-08-19T01:32:49;19.00;99.70
40822;DHT22;26542;50.836;5.356;2022-08-19T01:35:15;19.10;99.70
40822;DHT22;26542;50.836;5.356;2022-08-19T01:37:58;19.00;99.90
40822;DHT22;26542;50.836;5.356;2022-08-19T01:40:28;18.90;99.90
40822;DHT22;26542;50.836;5.356;2022-08-19T01:42:54;19.00;99.90
40822;DHT22;26542;50.836;5.356;2022-08-19T01:45:24;18.90;99.90
40822;DHT22;26542;50.836;5.356;2022-08-19T01:47:50;18.90;99.90
40822;DHT22;26542;50.836;5.356;2022-08-19T01:50:16;18.90;99.90
40822;DHT22;26542;50.836;5.356;2022-08-19T01:52:45;18.80;99.90
40822;DHT22;26542;50.836;5.356;2022-08-19T01:55:14;18.90;99.90
40822;DHT22;26542;50.836;5.356;2022-08-19T01:57:47;18.80;99.90
40822;DHT22;26542;50.836;5.356;2022-08-19T02:00:17;18.80;99.90
40822;DHT22;26542;50.836;5.356;2022-08-19T02:02:45;18.80;99.90
40822;DHT22;26542;50.836;5.356;2022-08-19T02:05:14;18.80;99.90
40822;DHT22;26542;50.836;5.356;2022-08-19T02:07:40;18.80;99.90
40822;DHT22;26542;50.836;5.356;2022-08-19T02:10:09;18.70;99.90
40822;DHT22;26542;50.836;5.356;2022-08-19T02:12:35;18.70;99.90
40822;DHT22;26542;50.836;5.356;2022-08-19T02:15:04;18.70;99.90
40822;DHT22;26542;50.836;5.356;2022-08-19T02:17:31;18.80;99.90
40822;DHT22;26542;50.836;5.356;2022-08-19T02:19:57;18.70;99.90
40822;DHT22;26542;50.836;5.356;2022-08-19T02:22:23;18.80;99.90
40822;DHT22;26542;50.836;5.356;2022-08-19T02:24:49;18.70;99.90
40822;DHT22;26542;50.836;5.356;2022-08-19T02:27:15;18.70;99.90
40822;DHT22;26542;50.836;5.356;2022-08-19T02:29:42;18.70;99.90
40822;DHT22;26542;50.836;5.356;2022-08-19T02:32:07;18.70;99.90
40822;DHT22;26542;50.836;5.356;2022-08-19T02:34:33;18.70;99.90
40822;DHT22;26542;50.836;5.356;2022-08-19T02:36:59;18.80;99.90
40822;DHT22;26542;50.836;5.356;2022-08-19T02:39:27;18.80;99.90
40822;DHT22;26542;50.836;5.356;2022-08-19T02:41:53;18.80;99.90
40822;DHT22;26542;50.836;5.356;2022-08-19T02:44:19;18.70;99.90
40822;DHT22;26542;50.836;5.356;2022-08-19T02:46:48;18.70;99.90
40822;DHT22;26542;50.836;5.356;2022-08-19T02:49:15;18.70;99.90
40822;DHT22;26542;50.836;5.356;2022-08-19T02:51:43;18.70;99.90
40822;DHT22;26542;50.836;5.356;2022-08-19T02:54:11;18.70;99.90
40822;DHT22;26542;50.836;5.356;2022-08-19T02:56:39;18.70;99.90
40822;DHT22;26542;50.836;5.356;2022-08-19T02:59:06;18.70;99.90
40822;DHT22;26542;50.836;5.356;2022-08-19T03:01:34;18.70;99.90
40822;DHT22;26542;50.836;5.356;2022-08-19T03:04:03;18.70;99.90
40822;DHT22;26542;50.836;5.356;2022-08-19T03:06:29;18.70;99.90
40822;DHT22;26542;50.836;5.356;2022-08-19T03:08:55;18.70;99.90
40822;DHT22;26542;50.836;5.356;2022-08-19T03:11:26;18.70;99.90
40822;DHT22;26542;50.836;5.356;2022-08-19T03:13:58;18.70;99.90
40822;DHT22;26542;50.836;5.356;2022-08-19T03:16:27;18.60;99.90
40822;DHT22;26542;50.836;5.356;2022-08-19T03:19:00;18.60;99.90
40822;DHT22;26542;50.836;5.356;2022-08-19T03:21:28;18.60;99.90
40822;DHT22;26542;50.836;5.356;2022-08-19T03:23:57;18.60;99.90
40822;DHT22;26542;50.836;5.356;2022-08-19T03:26:24;18.60;99.90
40822;DHT22;26542;50.836;5.356;2022-08-19T03:28:50;18.60;99.90
40822;DHT22;26542;50.836;5.356;2022-08-19T03:31:21;18.60;99.90
40822;DHT22;26542;50.836;5.356;2022-08-19T03:33:48;18.50;99.90
40822;DHT22;26542;50.836;5.356;2022-08-19T03:36:17;18.50;99.90
40822;DHT22;26542;50.836;5.356;2022-08-19T03:38:48;18.60;99.90
40822;DHT22;26542;50.836;5.356;2022-08-19T03:41:20;18.50;99.90
40822;DHT22;26542;50.836;5.356;2022-08-19T03:43:47;18.40;99.90
40822;DHT22;26542;50.836;5.356;2022-08-19T03:46:17;18.40;99.90
40822;DHT22;26542;50.836;5.356;2022-08-19T03:48:46;18.40;99.90
40822;DHT22;26542;50.836;5.356;2022-08-19T03:51:23;18.30;99.90
40822;DHT22;26542;50.836;5.356;2022-08-19T03:53:50;18.30;99.90
40822;DHT22;26542;50.836;5.356;2022-08-19T03:56:17;18.40;99.90
40822;DHT22;26542;50.836;5.356;2022-08-19T03:58:44;18.40;99.90
40822;DHT22;26542;50.836;5.356;2022-08-19T04:01:16;18.20;99.90
40822;DHT22;26542;50.836;5.356;2022-08-19T04:03:46;18.20;99.90
40822;DHT22;26542;50.836;5.356;2022-08-19T04:06:21;18.20;99.90
40822;DHT22;26542;50.836;5.356;2022-08-19T04:08:49;18.10;99.90
40822;DHT22;26542;50.836;5.356;2022-08-19T04:11:18;18.10;99.90
40822;DHT22;26542;50.836;5.356;2022-08-19T04:13:46;18.10;99.90
40822;DHT22;26542;50.836;5.356;2022-08-19T04:16:12;18.10;99.90
40822;DHT22;26542;50.836;5.356;2022-08-19T04:18:39;18.10;99.90
40822;DHT22;26542;50.836;5.356;2022-08-19T04:21:06;18.10;99.90
40822;DHT22;26542;50.836;5.356;2022-08-19T04:23:34;18.00;99.90
40822;DHT22;26542;50.836;5.356;2022-08-19T04:26:01;18.00;99.90
40822;DHT22;26542;50.836;5.356;2022-08-19T04:28:28;18.00;99.90
40822;DHT22;26542;50.836;5.356;2022-08-19T04:30:55;18.10;99.90
40822;DHT22;26542;50.836;5.356;2022-08-19T04:33:23;18.10;99.90
40822;DHT22;26542;50.836;5.356;2022-08-19T04:35:50;18.10;99.90
40822;DHT22;26542;50.836;5.356;2022-08-19T04:38:19;18.10;99.90
40822;DHT22;26542;50.836;5.356;2022-08-19T04:40:50;18.10;99.90
40822;DHT22;26542;50.836;5.356;2022-08-19T04:43:36;18.00;99.90
40822;DHT22;26542;50.836;5.356;2022-08-19T04:46:08;18.10;99.90
40822;DHT22;26542;50.836;5.356;2022-08-19T04:48:35;18.00;99.90
40822;DHT22;26542;50.836;5.356;2022-08-19T04:51:01;17.90;99.90
40822;DHT22;26542;50.836;5.356;2022-08-19T04:53:28;18.00;99.90
40822;DHT22;26542;50.836;5.356;2022-08-19T04:55:58;17.90;99.90
40822;DHT22;26542;50.836;5.356;2022-08-19T04:58:26;17.90;99.90
40822;DHT22;26542;50.836;5.356;2022-08-19T05:00:54;17.90;99.90
40822;DHT22;26542;50.836;5.356;2022-08-19T05:03:20;17.90;99.90
40822;DHT22;26542;50.836;5.356;2022-08-19T05:05:48;17.90;99.90
40822;DHT22;26542;50.836;5.356;2022-08-19T05:08:17;17.80;99.90
40822;DHT22;26542;50.836;5.356;2022-08-19T05:10:48;17.90;99.90
40822;DHT22;26542;50.836;5.356;2022-08-19T05:13:16;18.00;99.90
40822;DHT22;26542;50.836;5.356;2022-08-19T05:15:54;18.00;99.90
40822;DHT22;26542;50.836;5.356;2022-08-19T05:18:20;18.00;99.90
40822;DHT22;26542;50.836;5.356;2022-08-19T05:21:17;18.00;99.90
40822;DHT22;26542;50.836;5.356;2022-08-19T05:24:03;18.00;99.90
40822;DHT22;26542;50.836;5.356;2022-08-19T05:26:32;18.20;99.90
40822;DHT22;26542;50.836;5.356;2022-08-19T05:28:58;18.20;99.90
40822;DHT22;26542;50.836;5.356;2022-08-19T05:31:24;18.30;99.90
40822;DHT22;26542;50.836;5.356;2022-08-19T05:33:50;18.40;99.90
40822;DHT22;26542;50.836;5.356;2022-08-19T05:36:16;18.40;99.90
40822;DHT22;26542;50.836;5.356;2022-08-19T05:38:44;18.40;99.90
40822;DHT22;26542;50.836;5.356;2022-08-19T05:41:12;18.40;99.90
40822;DHT22;26542;50.836;5.356;2022-08-19T05:43:38;18.40;99.90
40822;DHT22;26542;50.836;5.356;2022-08-19T05:46:05;18.60;99.90
40822;DHT22;26542;50.836;5.356;2022-08-19T05:48:32;18.60;99.90
40822;DHT22;26542;50.836;5.356;2022-08-19T05:51:02;18.70;99.90
40822;DHT22;26542;50.836;5.356;2022-08-19T05:53:28;18.90;99.90
40822;DHT22;26542;50.836;5.356;2022-08-19T05:55:57;18.90;99.90
40822;DHT22;26542;50.836;5.356;2022-08-19T05:58:22;18.90;99.90
40822;DHT22;26542;50.836;5.356;2022-08-19T06:00:49;19.00;99.90
40822;DHT22;26542;50.836;5.356;2022-08-19T06:03:15;19.00;99.90
40822;DHT22;26542;50.836;5.356;2022-08-19T06:05:41;19.10;99.90
40822;DHT22;26542;50.836;5.356;2022-08-19T06:08:07;19.10;99.90
40822;DHT22;26542;50.836;5.356;2022-08-19T06:10:33;19.00;99.90
40822;DHT22;26542;50.836;5.356;2022-08-19T06:12:58;19.00;99.90
40822;DHT22;26542;50.836;5.356;2022-08-19T06:15:26;19.00;99.90
40822;DHT22;26542;50.836;5.356;2022-08-19T06:17:53;19.00;99.90
40822;DHT22;26542;50.836;5.356;2022-08-19T06:20:21;19.10;99.90
40822;DHT22;26542;50.836;5.356;2022-08-19T06:22:56;19.00;99.90
40822;DHT22;26542;50.836;5.356;2022-08-19T06:25:51;19.10;99.90
40822;DHT22;26542;50.836;5.356;2022-08-19T06:28:21;19.10;99.90
40822;DHT22;26542;50.836;5.356;2022-08-19T06:30:49;19.20;99.90
40822;DHT22;26542;50.836;5.356;2022-08-19T06:33:16;19.20;99.90
40822;DHT22;26542;50.836;5.356;2022-08-19T06:35:41;19.10;99.90
40822;DHT22;26542;50.836;5.356;2022-08-19T06:38:08;19.00;99.90
40822;DHT22;26542;50.836;5.356;2022-08-19T06:40:37;19.10;99.90
40822;DHT22;26542;50.836;5.356;2022-08-19T06:43:03;19.10;99.90
40822;DHT22;26542;50.836;5.356;2022-08-19T06:45:29;19.10;99.90
40822;DHT22;26542;50.836;5.356;2022-08-19T06:47:55;19.20;99.90
40822;DHT22;26542;50.836;5.356;2022-08-19T06:50:24;19.20;99.90
40822;DHT22;26542;50.836;5.356;2022-08-19T06:52:53;19.30;99.90
40822;DHT22;26542;50.836;5.356;2022-08-19T06:55:19;19.30;99.90
40822;DHT22;26542;50.836;5.356;2022-08-19T06:57:45;19.20;99.90
40822;DHT22;26542;50.836;5.356;2022-08-19T07:00:14;19.30;99.90
40822;DHT22;26542;50.836;5.356;2022-08-19T07:02:41;19.40;99.90
40822;DHT22;26542;50.836;5.356;2022-08-19T07:05:07;19.40;99.90
40822;DHT22;26542;50.836;5.356;2022-08-19T07:07:35;19.60;99.90
40822;DHT22;26542;50.836;5.356;2022-08-19T07:10:04;19.70;99.90
40822;DHT22;26542;50.836;5.356;2022-08-19T07:12:32;19.80;99.90
40822;DHT22;26542;50.836;5.356;2022-08-19T07:14:58;20.00;99.90
40822;DHT22;26542;50.836;5.356;2022-08-19T07:17:25;20.10;99.90
40822;DHT22;26542;50.836;5.356;2022-08-19T07:19:53;20.10;99.90
40822;DHT22;26542;50.836;5.356;2022-08-19T07:22:18;20.00;99.90
40822;DHT22;26542;50.836;5.356;2022-08-19T07:24:46;20.10;99.90
40822;DHT22;26542;50.836;5.356;2022-08-19T07:27:14;20.20;99.90
40822;DHT22;26542;50.836;5.356;2022-08-19T07:29:44;20.00;99.90
40822;DHT22;26542;50.836;5.356;2022-08-19T07:32:13;20.00;99.90
40822;DHT22;26542;50.836;5.356;2022-08-19T07:34:40;20.00;99.90
40822;DHT22;26542;50.836;5.356;2022-08-19T07:37:06;20.00;99.90
40822;DHT22;26542;50.836;5.356;2022-08-19T07:39:36;20.00;99.90
40822;DHT22;26542;50.836;5.356;2022-08-19T07:42:09;20.00;99.90
40822;DHT22;26542;50.836;5.356;2022-08-19T07:44:37;20.20;99.90
40822;DHT22;26542;50.836;5.356;2022-08-19T07:47:04;20.20;99.90
40822;DHT22;26542;50.836;5.356;2022-08-19T07:49:30;20.20;99.90
40822;DHT22;26542;50.836;5.356;2022-08-19T07:52:02;20.20;99.90
40822;DHT22;26542;50.836;5.356;2022-08-19T07:54:31;20.30;99.90
40822;DHT22;26542;50.836;5.356;2022-08-19T07:57:02;20.50;99.90
40822;DHT22;26542;50.836;5.356;2022-08-19T07:59:28;20.40;99.90
40822;DHT22;26542;50.836;5.356;2022-08-19T08:01:55;20.50;99.90
40822;DHT22;26542;50.836;5.356;2022-08-19T08:04:24;20.50;99.90
40822;DHT22;26542;50.836;5.356;2022-08-19T08:07:08;20.40;99.90
40822;DHT22;26542;50.836;5.356;2022-08-19T08:09:52;20.60;99.90
40822;DHT22;26542;50.836;5.356;2022-08-19T08:12:25;20.80;99.90
40822;DHT22;26542;50.836;5.356;2022-08-19T08:14:59;20.90;99.90
40822;DHT22;26542;50.836;5.356;2022-08-19T08:17:29;21.00;99.90
40822;DHT22;26542;50.836;5.356;2022-08-19T08:19:55;21.10;99.90
40822;DHT22;26542;50.836;5.356;2022-08-19T08:22:36;21.30;99.90
40822;DHT22;26542;50.836;5.356;2022-08-19T08:25:22;21.40;99.90
40822;DHT22;26542;50.836;5.356;2022-08-19T08:27:49;21.30;99.90
40822;DHT22;26542;50.836;5.356;2022-08-19T08:30:18;21.50;99.90
40822;DHT22;26542;50.836;5.356;2022-08-19T08:32:45;21.60;99.90
40822;DHT22;26542;50.836;5.356;2022-08-19T08:35:24;21.70;99.70
40822;DHT22;26542;50.836;5.356;2022-08-19T08:37:56;21.70;99.80
40822;DHT22;26542;50.836;5.356;2022-08-19T08:40:38;21.90;99.40
40822;DHT22;26542;50.836;5.356;2022-08-19T08:43:38;21.90;99.10
40822;DHT22;26542;50.836;5.356;2022-08-19T08:46:15;21.80;99.20
40822;DHT22;26542;50.836;5.356;2022-08-19T08:48:50;21.80;99.40
40822;DHT22;26542;50.836;5.356;2022-08-19T08:51:27;21.80;98.90
40822;DHT22;26542;50.836;5.356;2022-08-19T08:53:55;21.70;99.20
40822;DHT22;26542;50.836;5.356;2022-08-19T08:56:22;21.80;99.40
40822;DHT22;26542;50.836;5.356;2022-08-19T08:59:05;22.00;99.30
40822;DHT22;26542;50.836;5.356;2022-08-19T09:01:34;22.20;99.00
40822;DHT22;26542;50.836;5.356;2022-08-19T09:04:04;22.30;98.60
40822;DHT22;26542;50.836;5.356;2022-08-19T09:14:58;22.70;96.90
40822;DHT22;26542;50.836;5.356;2022-08-19T09:17:28;22.90;96.90
40822;DHT22;26542;50.836;5.356;2022-08-19T09:22:40;23.20;96.10
40822;DHT22;26542;50.836;5.356;2022-08-19T09:25:10;23.50;96.00
40822;DHT22;26542;50.836;5.356;2022-08-19T09:27:38;23.50;95.50
40822;DHT22;26542;50.836;5.356;2022-08-19T09:30:06;23.70;95.70
40822;DHT22;26542;50.836;5.356;2022-08-19T09:32:33;23.90;94.60
40822;DHT22;26542;50.836;5.356;2022-08-19T09:35:01;23.90;94.40
40822;DHT22;26542;50.836;5.356;2022-08-19T09:37:27;23.90;94.60
40822;DHT22;26542;50.836;5.356;2022-08-19T09:39:53;23.80;93.70
40822;DHT22;26542;50.836;5.356;2022-08-19T09:42:21;23.70;94.10
40822;DHT22;26542;50.836;5.356;2022-08-19T09:44:47;23.70;94.30
40822;DHT22;26542;50.836;5.356;2022-08-19T09:47:16;23.70;94.30
40822;DHT22;26542;50.836;5.356;2022-08-19T09:49:44;23.90;93.60
40822;DHT22;26542;50.836;5.356;2022-08-19T09:52:16;24.00;93.30
40822;DHT22;26542;50.836;5.356;2022-08-19T09:54:41;24.30;92.80
40822;DHT22;26542;50.836;5.356;2022-08-19T09:57:08;24.40;92.50
40822;DHT22;26542;50.836;5.356;2022-08-19T09:59:35;24.30;92.60
40822;DHT22;26542;50.836;5.356;2022-08-19T10:02:02;24.20;92.40
40822;DHT22;26542;50.836;5.356;2022-08-19T10:04:28;24.40;92.40
40822;DHT22;26542;50.836;5.356;2022-08-19T10:07:14;24.60;91.50
40822;DHT22;26542;50.836;5.356;2022-08-19T10:09:41;24.70;91.50
40822;DHT22;26542;50.836;5.356;2022-08-19T10:12:07;24.70;92.10
40822;DHT22;26542;50.836;5.356;2022-08-19T10:14:34;24.70;92.20
40822;DHT22;26542;50.836;5.356;2022-08-19T10:17:01;24.80;91.90
40822;DHT22;26542;50.836;5.356;2022-08-19T10:19:28;24.80;91.90
40822;DHT22;26542;50.836;5.356;2022-08-19T10:22:01;24.90;91.60
40822;DHT22;26542;50.836;5.356;2022-08-19T10:24:30;25.20;91.50
40822;DHT22;26542;50.836;5.356;2022-08-19T10:26:56;25.30;91.00
40822;DHT22;26542;50.836;5.356;2022-08-19T10:29:24;25.50;91.00
40822;DHT22;26542;50.836;5.356;2022-08-19T10:31:50;25.60;90.00
40822;DHT22;26542;50.836;5.356;2022-08-19T10:34:16;25.80;89.90
40822;DHT22;26542;50.836;5.356;2022-08-19T10:36:42;25.80;89.50
40822;DHT22;26542;50.836;5.356;2022-08-19T10:39:09;25.90;87.50
40822;DHT22;26542;50.836;5.356;2022-08-19T10:41:39;25.90;88.80
40822;DHT22;26542;50.836;5.356;2022-08-19T10:44:07;25.90;88.40
40822;DHT22;26542;50.836;5.356;2022-08-19T10:46:40;25.80;88.50
40822;DHT22;26542;50.836;5.356;2022-08-19T10:49:07;25.50;88.80
40822;DHT22;26542;50.836;5.356;2022-08-19T10:51:34;25.60;89.70
40822;DHT22;26542;50.836;5.356;2022-08-19T10:54:19;25.50;90.00
40822;DHT22;26542;50.836;5.356;2022-08-19T10:56:46;25.40;89.60
40822;DHT22;26542;50.836;5.356;2022-08-19T10:59:20;25.40;89.60
40822;DHT22;26542;50.836;5.356;2022-08-19T11:01:47;25.60;89.70
40822;DHT22;26542;50.836;5.356;2022-08-19T11:04:13;25.60;90.00
40822;DHT22;26542;50.836;5.356;2022-08-19T11:06:42;25.70;90.00
40822;DHT22;26542;50.836;5.356;2022-08-19T11:09:09;25.90;89.60
40822;DHT22;26542;50.836;5.356;2022-08-19T11:11:36;25.90;88.20
40822;DHT22;26542;50.836;5.356;2022-08-19T11:14:06;26.10;88.30
40822;DHT22;26542;50.836;5.356;2022-08-19T11:16:36;26.00;88.60
40822;DHT22;26542;50.836;5.356;2022-08-19T11:19:03;26.10;88.40
40822;DHT22;26542;50.836;5.356;2022-08-19T11:21:35;26.10;88.30
40822;DHT22;26542;50.836;5.356;2022-08-19T11:24:05;26.00;88.60
40822;DHT22;26542;50.836;5.356;2022-08-19T11:26:32;26.20;88.40
40822;DHT22;26542;50.836;5.356;2022-08-19T11:28:59;26.10;89.00
40822;DHT22;26542;50.836;5.356;2022-08-19T11:31:29;26.10;88.30
40822;DHT22;26542;50.836;5.356;2022-08-19T11:34:05;26.10;89.30
40822;DHT22;26542;50.836;5.356;2022-08-19T11:36:38;26.30;89.80
40822;DHT22;26542;50.836;5.356;2022-08-19T11:39:22;26.30;88.10
40822;DHT22;26542;50.836;5.356;2022-08-19T11:41:48;26.50;88.90
40822;DHT22;26542;50.836;5.356;2022-08-19T11:44:16;26.60;89.40
40822;DHT22;26542;50.836;5.356;2022-08-19T11:46:44;26.80;87.90
40822;DHT22;26542;50.836;5.356;2022-08-19T11:49:22;27.00;88.30
40822;DHT22;26542;50.836;5.356;2022-08-19T11:51:53;27.20;87.30
40822;DHT22;26542;50.836;5.356;2022-08-19T11:54:29;27.30;86.90
40822;DHT22;26542;50.836;5.356;2022-08-19T11:56:54;27.20;86.60
40822;DHT22;26542;50.836;5.356;2022-08-19T11:59:20;27.10;86.40
40822;DHT22;26542;50.836;5.356;2022-08-19T12:01:46;27.20;87.10
40822;DHT22;26542;50.836;5.356;2022-08-19T12:04:15;27.20;86.50
40822;DHT22;26542;50.836;5.356;2022-08-19T12:06:41;27.20;86.60
40822;DHT22;26542;50.836;5.356;2022-08-19T12:09:12;27.30;86.50
40822;DHT22;26542;50.836;5.356;2022-08-19T12:11:42;27.20;86.90
40822;DHT22;26542;50.836;5.356;2022-08-19T12:14:10;27.00;87.80
40822;DHT22;26542;50.836;5.356;2022-08-19T12:16:37;27.00;87.40
40822;DHT22;26542;50.836;5.356;2022-08-19T12:19:04;27.10;88.10
40822;DHT22;26542;50.836;5.356;2022-08-19T12:21:32;27.00;87.10
40822;DHT22;26542;50.836;5.356;2022-08-19T12:23:59;26.90;87.40
40822;DHT22;26542;50.836;5.356;2022-08-19T12:26:27;26.90;88.80
40822;DHT22;26542;50.836;5.356;2022-08-19T12:28:57;26.90;88.90
40822;DHT22;26542;50.836;5.356;2022-08-19T12:31:29;26.70;89.60
40822;DHT22;26542;50.836;5.356;2022-08-19T12:33:56;26.80;89.90
40822;DHT22;26542;50.836;5.356;2022-08-19T12:36:22;26.80;89.50
40822;DHT22;26542;50.836;5.356;2022-08-19T12:38:48;26.80;90.10
40822;DHT22;26542;50.836;5.356;2022-08-19T12:41:16;26.50;90.00
40822;DHT22;26542;50.836;5.356;2022-08-19T12:43:43;26.50;90.30
40822;DHT22;26542;50.836;5.356;2022-08-19T12:46:10;26.40;90.20
40822;DHT22;26542;50.836;5.356;2022-08-19T12:48:37;26.40;90.50
40822;DHT22;26542;50.836;5.356;2022-08-19T12:51:09;26.40;90.30
40822;DHT22;26542;50.836;5.356;2022-08-19T12:53:38;26.30;90.80
40822;DHT22;26542;50.836;5.356;2022-08-19T12:56:05;26.20;90.50
40822;DHT22;26542;50.836;5.356;2022-08-19T12:58:31;26.40;90.60
40822;DHT22;26542;50.836;5.356;2022-08-19T13:01:06;26.40;90.80
40822;DHT22;26542;50.836;5.356;2022-08-19T13:03:34;26.20;91.00
40822;DHT22;26542;50.836;5.356;2022-08-19T13:06:00;26.20;91.20
40822;DHT22;26542;50.836;5.356;2022-08-19T13:08:26;26.00;91.70
40822;DHT22;26542;50.836;5.356;2022-08-19T13:10:54;25.90;91.90
40822;DHT22;26542;50.836;5.356;2022-08-19T13:13:26;25.70;92.00
40822;DHT22;26542;50.836;5.356;2022-08-19T13:15:51;25.60;92.40
40822;DHT22;26542;50.836;5.356;2022-08-19T13:18:26;25.60;92.60
40822;DHT22;26542;50.836;5.356;2022-08-19T13:20:52;25.60;92.40
40822;DHT22;26542;50.836;5.356;2022-08-19T13:23:18;25.60;92.50
40822;DHT22;26542;50.836;5.356;2022-08-19T13:25:45;25.60;92.80
40822;DHT22;26542;50.836;5.356;2022-08-19T13:28:20;25.60;92.90
40822;DHT22;26542;50.836;5.356;2022-08-19T13:30:47;25.70;92.80
40822;DHT22;26542;50.836;5.356;2022-08-19T13:33:33;25.80;93.00
40822;DHT22;26542;50.836;5.356;2022-08-19T13:36:00;25.80;92.50
40822;DHT22;26542;50.836;5.356;2022-08-19T13:38:27;25.80;92.60
40822;DHT22;26542;50.836;5.356;2022-08-19T13:40:54;25.90;92.60
40822;DHT22;26542;50.836;5.356;2022-08-19T13:43:24;25.90;92.30
40822;DHT22;26542;50.836;5.356;2022-08-19T13:45:53;26.00;92.60
40822;DHT22;26542;50.836;5.356;2022-08-19T13:48:24;25.90;92.50
40822;DHT22;26542;50.836;5.356;2022-08-19T13:50:51;26.10;92.30
40822;DHT22;26542;50.836;5.356;2022-08-19T13:53:19;26.20;92.30
40822;DHT22;26542;50.836;5.356;2022-08-19T13:55:45;26.10;92.40
40822;DHT22;26542;50.836;5.356;2022-08-19T13:58:12;26.00;92.40
40822;DHT22;26542;50.836;5.356;2022-08-19T14:00:42;26.00;93.10
40822;DHT22;26542;50.836;5.356;2022-08-19T14:03:10;26.00;92.10
40822;DHT22;26542;50.836;5.356;2022-08-19T14:05:42;25.90;92.20
40822;DHT22;26542;50.836;5.356;2022-08-19T14:08:08;25.90;92.50
40822;DHT22;26542;50.836;5.356;2022-08-19T14:10:39;26.00;92.90
40822;DHT22;26542;50.836;5.356;2022-08-19T14:13:06;25.90;92.80
40822;DHT22;26542;50.836;5.356;2022-08-19T14:15:31;25.90;93.20
40822;DHT22;26542;50.836;5.356;2022-08-19T14:17:58;26.00;92.70
40822;DHT22;26542;50.836;5.356;2022-08-19T14:20:24;25.90;93.00
40822;DHT22;26542;50.836;5.356;2022-08-19T14:22:50;26.20;92.70
40822;DHT22;26542;50.836;5.356;2022-08-19T14:25:19;26.10;92.50
40822;DHT22;26542;50.836;5.356;2022-08-19T14:27:48;26.00;92.80
40822;DHT22;26542;50.836;5.356;2022-08-19T14:30:19;26.20;92.70
40822;DHT22;26542;50.836;5.356;2022-08-19T14:32:45;26.50;93.20
40822;DHT22;26542;50.836;5.356;2022-08-19T14:35:15;26.80;91.40
40822;DHT22;26542;50.836;5.356;2022-08-19T14:37:44;26.70;91.40
40822;DHT22;26542;50.836;5.356;2022-08-19T14:40:12;26.60;91.60
40822;DHT22;26542;50.836;5.356;2022-08-19T14:42:41;26.60;92.20
40822;DHT22;26542;50.836;5.356;2022-08-19T14:45:09;26.70;92.00
40822;DHT22;26542;50.836;5.356;2022-08-19T14:47:35;26.80;91.70
40822;DHT22;26542;50.836;5.356;2022-08-19T14:50:07;26.90;91.30
40822;DHT22;26542;50.836;5.356;2022-08-19T14:52:34;27.20;91.60
40822;DHT22;26542;50.836;5.356;2022-08-19T14:55:03;27.20;90.80
40822;DHT22;26542;50.836;5.356;2022-08-19T14:57:31;27.20;90.60
40822;DHT22;26542;50.836;5.356;2022-08-19T15:00:02;27.20;90.70
40822;DHT22;26542;50.836;5.356;2022-08-19T15:02:28;27.30;90.60
40822;DHT22;26542;50.836;5.356;2022-08-19T15:04:54;27.50;90.60
40822;DHT22;26542;50.836;5.356;2022-08-19T15:07:22;27.20;90.10
40822;DHT22;26542;50.836;5.356;2022-08-19T15:09:49;27.00;90.40
40822;DHT22;26542;50.836;5.356;2022-08-19T15:12:16;26.60;90.50
40822;DHT22;26542;50.836;5.356;2022-08-19T15:14:42;26.50;91.00
40822;DHT22;26542;50.836;5.356;2022-08-19T15:17:12;26.40;90.90
40822;DHT22;26542;50.836;5.356;2022-08-19T15:19:37;26.30;91.20
40822;DHT22;26542;50.836;5.356;2022-08-19T15:22:03;26.30;91.30
40822;DHT22;26542;50.836;5.356;2022-08-19T15:24:29;26.30;91.20
40822;DHT22;26542;50.836;5.356;2022-08-19T15:26:55;26.30;91.30
40822;DHT22;26542;50.836;5.356;2022-08-19T15:29:22;26.40;91.10
40822;DHT22;26542;50.836;5.356;2022-08-19T15:31:52;26.30;91.60
40822;DHT22;26542;50.836;5.356;2022-08-19T15:34:21;26.10;91.60
40822;DHT22;26542;50.836;5.356;2022-08-19T15:36:47;26.10;92.00
40822;DHT22;26542;50.836;5.356;2022-08-19T15:39:12;26.20;91.90
40822;DHT22;26542;50.836;5.356;2022-08-19T15:41:41;26.20;91.90
40822;DHT22;26542;50.836;5.356;2022-08-19T15:44:11;26.20;91.80
40822;DHT22;26542;50.836;5.356;2022-08-19T15:46:42;26.20;91.80
40822;DHT22;26542;50.836;5.356;2022-08-19T15:49:17;26.20;91.70
40822;DHT22;26542;50.836;5.356;2022-08-19T15:51:47;26.00;92.20